Time;durP1;ratioP1;P1;durP2;ratioP2;P2;SDS_P1;SDS_P2;PMS_P1;PMS_P2;Temp;Humidity;BMP_temperature;BMP_pressure;BME280_temperature;BME280_humidity;BME280_pressure;Samples;Min_cycle;Max_cycle;Signal;HPM_P1;HPM_P2
2022/08/28 00:01:50;;;;;;;16.20;12.40;;;19.80;99.90;;;;;;4927295;29;20334;-72
2022/08/28 00:04:17;;;;;;;17.20;12.17;;;19.80;99.90;;;;;;4943924;29;20087;-71
2022/08/28 00:06:42;;;;;;;21.02;13.15;;;19.80;99.90;;;;;;4942944;29;20032;-72
2022/08/28 00:09:08;;;;;;;19.97;12.93;;;19.80;99.90;;;;;;4943089;29;20027;-71
2022/08/28 00:11:36;;;;;;;19.77;13.70;;;19.80;99.90;;;;;;4944184;29;20019;-71
2022/08/28 00:14:04;;;;;;;16.38;12.18;;;19.90;99.90;;;;;;4942825;29;20020;-71
2022/08/28 00:16:30;;;;;;;22.65;13.82;;;19.90;99.90;;;;;;4944624;29;20362;-71
2022/08/28 00:18:56;;;;;;;17.43;12.37;;;19.80;99.90;;;;;;4930518;29;20039;-71
2022/08/28 00:21:22;;;;;;;17.37;12.37;;;19.90;99.90;;;;;;4946116;29;20030;-71
2022/08/28 00:23:48;;;;;;;15.05;11.80;;;19.80;99.90;;;;;;4944834;29;20291;-71
2022/08/28 00:27:51;;;;;;;19.20;12.40;;;19.80;99.90;;;;;;4947203;29;20036;-71
2022/08/28 00:29:00;;;;;;;17.05;11.65;;;19.90;99.90;;;;;;4946868;29;20338;-71
2022/08/28 00:31:26;;;;;;;18.33;12.17;;;19.80;99.90;;;;;;4946045;29;20043;-72
2022/08/28 00:33:51;;;;;;;17.93;12.90;;;19.90;99.90;;;;;;4947016;29;20027;-72
2022/08/28 00:36:18;;;;;;;17.77;12.23;;;19.80;99.90;;;;;;4947206;29;20041;-72
2022/08/28 00:38:44;;;;;;;18.92;13.02;;;19.90;99.90;;;;;;4946761;29;20035;-71
2022/08/28 00:41:10;;;;;;;18.93;12.30;;;19.80;99.90;;;;;;4947073;29;20091;-71
2022/08/28 00:43:41;;;;;;;17.75;12.45;;;19.80;99.90;;;;;;4929923;29;20039;-72
2022/08/28 00:46:11;;;;;;;15.18;11.88;;;19.80;99.90;;;;;;4946890;29;20098;-72
2022/08/28 00:48:37;;;;;;;21.08;13.15;;;19.80;99.90;;;;;;4930407;29;20028;-71
2022/08/28 00:53:47;;;;;;;18.60;12.35;;;19.80;99.90;;;;;;4932050;29;20259;-71
2022/08/28 00:56:13;;;;;;;18.03;11.63;;;19.70;99.90;;;;;;4914197;29;20102;-71
2022/08/28 00:58:41;;;;;;;13.77;10.87;;;19.70;99.90;;;;;;4945737;29;20287;-71
2022/08/28 01:01:06;;;;;;;17.10;12.60;;;19.80;99.90;;;;;;4914366;29;20318;-71
2022/08/28 01:03:32;;;;;;;18.03;12.10;;;19.70;99.90;;;;;;4946441;29;20042;-71
2022/08/28 01:05:58;;;;;;;17.05;12.25;;;19.70;99.90;;;;;;4946588;29;20035;-71
2022/08/28 01:08:24;;;;;;;15.20;11.73;;;19.70;99.90;;;;;;4946315;29;20020;-71
2022/08/28 01:10:52;;;;;;;18.23;12.43;;;19.70;99.90;;;;;;4945473;29;20263;-72
2022/08/28 01:13:18;;;;;;;15.40;11.32;;;19.70;99.90;;;;;;4929442;29;20338;-71
2022/08/28 01:15:44;;;;;;;19.43;11.23;;;19.70;99.90;;;;;;4945249;29;20032;-71
2022/08/28 01:18:12;;;;;;;14.77;11.23;;;19.60;99.90;;;;;;4929394;29;20094;-71
2022/08/28 01:21:04;;;;;;;18.98;12.32;;;19.70;99.90;;;;;;4929713;29;20035;-71
2022/08/28 01:24:13;;;;;;;16.40;12.30;;;19.60;99.90;;;;;;4930934;29;20043;-72
2022/08/28 01:26:39;;;;;;;17.88;12.45;;;19.60;99.90;;;;;;4902718;29;20035;-71
2022/08/28 01:29:07;;;;;;;21.80;12.75;;;19.60;99.90;;;;;;4929397;29;20092;-71
2022/08/28 01:31:33;;;;;;;17.02;11.55;;;19.60;99.90;;;;;;4898367;29;20020;-71
2022/08/28 01:33:59;;;;;;;22.43;13.40;;;19.60;99.90;;;;;;4945855;29;20023;-71
2022/08/28 01:36:25;;;;;;;15.38;11.15;;;19.50;99.90;;;;;;4946229;29;20027;-70
2022/08/28 01:39:07;;;;;;;15.93;11.27;;;19.50;99.90;;;;;;5021158;23;20073;-72
2022/08/28 01:41:36;;;;;;;17.35;10.75;;;19.50;99.90;;;;;;5004027;28;20321;-73
2022/08/28 01:44:02;;;;;;;15.35;11.82;;;19.50;99.90;;;;;;5003769;28;20033;-72
2022/08/28 01:46:30;;;;;;;15.37;11.20;;;19.50;99.90;;;;;;5003988;28;20027;-72
2022/08/28 01:48:56;;;;;;;19.73;12.48;;;19.50;99.90;;;;;;5002876;28;20020;-72
2022/08/28 01:51:21;;;;;;;17.03;12.00;;;19.40;99.90;;;;;;5004013;28;20026;-73
2022/08/28 01:53:48;;;;;;;16.07;11.97;;;19.40;99.90;;;;;;5003385;28;20026;-72
2022/08/28 01:56:15;;;;;;;15.77;11.93;;;19.40;99.90;;;;;;5002662;28;20221;-72
2022/08/28 01:58:41;;;;;;;15.00;11.23;;;19.40;99.90;;;;;;5002592;28;20261;-74
2022/08/28 02:01:11;;;;;;;20.50;12.67;;;19.40;99.90;;;;;;5002588;28;20080;-72
2022/08/28 02:03:37;;;;;;;14.73;11.45;;;19.30;99.90;;;;;;4986148;28;20273;-72
2022/08/28 02:06:03;;;;;;;21.47;12.93;;;19.30;99.90;;;;;;5018562;28;20198;-73
2022/08/28 02:08:29;;;;;;;20.17;12.32;;;19.30;99.90;;;;;;5002236;28;20046;-73
2022/08/28 02:10:55;;;;;;;16.43;12.27;;;19.30;99.90;;;;;;5003589;28;20073;-73
2022/08/28 02:13:21;;;;;;;17.60;11.93;;;19.30;99.90;;;;;;5003226;28;20060;-72
2022/08/28 02:15:47;;;;;;;19.38;11.98;;;19.30;99.90;;;;;;5003356;28;20030;-72
2022/08/28 02:18:13;;;;;;;17.23;11.30;;;19.20;99.90;;;;;;5003413;28;20026;-72
2022/08/28 02:20:39;;;;;;;15.27;12.13;;;19.30;99.90;;;;;;5003296;28;20026;-72
2022/08/28 02:23:05;;;;;;;19.73;12.50;;;19.20;99.90;;;;;;5001719;28;20030;-72
2022/08/28 02:25:30;;;;;;;18.03;11.43;;;19.20;99.90;;;;;;5003239;28;20101;-72
2022/08/28 02:27:56;;;;;;;16.63;11.80;;;19.20;99.90;;;;;;5002086;28;20033;-72
2022/08/28 02:30:22;;;;;;;15.73;11.40;;;19.20;99.90;;;;;;5003174;28;20285;-72
2022/08/28 02:32:49;;;;;;;15.03;12.07;;;19.20;99.90;;;;;;5002908;28;20018;-72
2022/08/28 02:35:15;;;;;;;;;;;19.20;99.90;;;;;;5002314;28;20022;-72
2022/08/28 02:37:43;;;;;;;15.93;11.65;;;19.20;99.90;;;;;;5017920;28;19916;-72
2022/08/28 02:40:10;;;;;;;18.98;12.55;;;19.20;99.90;;;;;;5002516;28;20026;-72
2022/08/28 02:42:36;;;;;;;19.58;12.45;;;19.20;99.90;;;;;;5002846;28;20022;-72
2022/08/28 02:45:02;;;;;;;16.98;11.63;;;19.20;99.90;;;;;;5002686;28;20030;-72
2022/08/28 02:47:27;;;;;;;19.30;12.50;;;19.20;99.90;;;;;;5002868;28;20026;-73
2022/08/28 02:49:53;;;;;;;16.30;11.83;;;19.20;99.90;;;;;;5002731;28;20589;-72
2022/08/28 02:52:20;;;;;;;17.40;12.33;;;19.20;99.90;;;;;;5002661;28;20030;-72
2022/08/28 02:54:46;;;;;;;16.00;11.68;;;19.20;99.90;;;;;;5002618;28;20325;-73
2022/08/28 02:57:13;;;;;;;15.93;11.10;;;19.20;99.90;;;;;;5002807;28;20030;-74
2022/08/28 02:59:38;;;;;;;17.58;11.80;;;19.20;99.90;;;;;;5002745;28;20022;-73
2022/08/28 03:02:05;;;;;;;16.10;12.00;;;19.10;99.90;;;;;;5002763;28;20034;-73
2022/08/28 03:04:33;;;;;;;17.27;11.68;;;19.10;99.90;;;;;;5002348;28;20117;-72
2022/08/28 03:06:58;;;;;;;15.68;11.85;;;19.10;99.90;;;;;;5002763;28;20018;-73
2022/08/28 03:09:25;;;;;;;16.13;12.17;;;19.20;99.90;;;;;;5001333;28;20195;-72
2022/08/28 03:11:52;;;;;;;16.75;12.05;;;19.20;99.90;;;;;;5001371;28;20026;-73
2022/08/28 03:14:19;;;;;;;17.77;11.27;;;19.10;99.90;;;;;;5002323;28;20022;-73
2022/08/28 03:16:48;;;;;;;16.63;12.25;;;19.10;99.90;;;;;;5002599;28;20321;-72
2022/08/28 03:19:14;;;;;;;19.33;12.23;;;19.10;99.90;;;;;;5002554;28;20050;-72
2022/08/28 03:21:40;;;;;;;15.18;11.73;;;19.10;99.90;;;;;;5001482;28;20019;-72
2022/08/28 03:24:06;;;;;;;16.57;12.53;;;19.10;99.90;;;;;;5002076;28;20125;-72
2022/08/28 03:26:31;;;;;;;19.37;12.53;;;19.00;99.90;;;;;;5002539;28;20077;-72
2022/08/28 03:28:58;;;;;;;17.60;11.50;;;19.00;99.90;;;;;;5002443;28;20269;-72
2022/08/28 03:31:26;;;;;;;16.90;10.80;;;19.00;99.90;;;;;;5002441;28;20310;-72
2022/08/28 03:33:52;;;;;;;18.02;12.68;;;19.00;99.90;;;;;;5001109;28;20049;-72
2022/08/28 03:36:22;;;;;;;17.73;12.00;;;19.00;99.90;;;;;;5001400;28;20022;-72
2022/08/28 03:38:49;;;;;;;15.85;11.60;;;19.00;99.90;;;;;;5000862;28;20276;-72
2022/08/28 03:41:17;;;;;;;14.50;11.45;;;19.00;99.90;;;;;;5001203;28;20326;-73
2022/08/28 03:43:43;;;;;;;18.00;11.85;;;19.00;99.90;;;;;;5000934;28;20206;-73
2022/08/28 03:46:13;;;;;;;20.23;12.52;;;19.00;99.90;;;;;;5002175;28;20085;-72
2022/08/28 03:48:39;;;;;;;16.88;12.52;;;19.00;99.90;;;;;;5001193;28;20068;-72
2022/08/28 03:51:17;;;;;;;16.07;11.63;;;19.00;99.90;;;;;;5003663;28;20022;-73
2022/08/28 03:53:43;;;;;;;19.85;11.60;;;19.00;99.90;;;;;;5004451;28;20230;-73
2022/08/28 03:56:10;;;;;;;17.50;11.60;;;19.00;99.90;;;;;;5005041;28;20030;-72
2022/08/28 03:58:37;;;;;;;19.20;12.15;;;19.00;99.90;;;;;;5004689;28;20380;-72
2022/08/28 04:01:03;;;;;;;19.05;12.15;;;19.00;99.90;;;;;;5005938;28;20233;-73
2022/08/28 04:03:29;;;;;;;16.87;11.93;;;19.00;99.90;;;;;;5005599;28;20026;-72
2022/08/28 04:05:54;;;;;;;21.97;12.47;;;19.00;99.90;;;;;;5005787;28;20030;-72
2022/08/28 04:08:21;;;;;;;15.83;11.57;;;19.00;99.90;;;;;;5005570;28;20026;-73
2022/08/28 04:10:47;;;;;;;22.42;11.98;;;19.00;99.90;;;;;;5004605;28;20373;-73
2022/08/28 04:13:13;;;;;;;16.60;11.73;;;19.00;99.90;;;;;;5003128;28;20023;-73
2022/08/28 04:15:40;;;;;;;19.40;12.13;;;19.00;99.90;;;;;;5005641;28;20054;-74
2022/08/28 04:18:06;;;;;;;17.27;11.68;;;19.00;99.90;;;;;;5004390;28;20317;-73
2022/08/28 04:20:32;;;;;;;17.13;11.43;;;19.00;99.90;;;;;;5005606;28;20348;-73
2022/08/28 04:22:58;;;;;;;17.57;11.27;;;19.00;99.90;;;;;;5005119;28;20034;-74
2022/08/28 04:25:23;;;;;;;18.57;12.30;;;19.00;99.90;;;;;;5003856;28;20225;-74
2022/08/28 04:27:50;;;;;;;16.37;11.20;;;19.00;99.90;;;;;;5004093;28;20042;-72
2022/08/28 04:30:15;;;;;;;14.63;11.32;;;19.00;99.90;;;;;;5004269;28;20049;-74
2022/08/28 04:32:41;;;;;;;17.00;11.90;;;19.00;99.90;;;;;;5004047;28;20625;-73
2022/08/28 04:35:09;;;;;;;16.43;12.27;;;19.00;99.90;;;;;;5005288;28;20038;-73
2022/08/28 04:37:35;;;;;;;16.25;12.05;;;19.00;99.90;;;;;;5005079;28;20034;-73
2022/08/28 04:40:04;;;;;;;16.27;12.88;;;19.00;99.90;;;;;;5003929;28;20093;-73
2022/08/28 04:42:30;;;;;;;17.13;12.10;;;19.00;99.90;;;;;;5003908;28;20053;-74
2022/08/28 04:44:59;;;;;;;18.33;12.45;;;19.00;99.90;;;;;;5003796;28;20022;-74
2022/08/28 04:47:26;;;;;;;18.98;12.38;;;19.00;99.90;;;;;;5004986;28;20085;-73
2022/08/28 04:49:52;;;;;;;18.23;12.05;;;18.90;99.90;;;;;;5005052;28;20030;-73
2022/08/28 04:52:18;;;;;;;19.60;11.60;;;18.90;99.90;;;;;;5003903;28;20432;-74
2022/08/28 04:54:44;;;;;;;19.07;11.87;;;18.90;99.90;;;;;;5004325;28;20026;-74
2022/08/28 04:57:10;;;;;;;14.63;11.63;;;18.90;99.90;;;;;;5003741;28;20026;-73
2022/08/28 04:59:35;;;;;;;16.10;11.27;;;18.90;99.90;;;;;;4995078;28;20223;-73
2022/08/28 05:02:01;;;;;;;17.03;11.93;;;19.00;99.90;;;;;;4992413;28;20042;-73
2022/08/28 05:04:27;;;;;;;15.87;12.33;;;19.00;99.90;;;;;;5004464;28;20041;-73
2022/08/28 05:06:53;;;;;;;15.60;11.03;;;19.00;99.90;;;;;;5004648;28;20233;-73
2022/08/28 05:09:20;;;;;;;17.33;11.68;;;19.00;99.90;;;;;;5003263;28;20022;-73
2022/08/28 05:11:46;;;;;;;13.68;11.27;;;19.00;99.90;;;;;;5000962;28;20026;-73
2022/08/28 05:14:13;;;;;;;15.75;11.13;;;19.10;99.90;;;;;;4975179;28;20233;-74
2022/08/28 05:16:47;;;;;;;;;;;19.00;99.90;;;;;;5003832;28;20094;-73
2022/08/28 05:19:14;;;;;;;15.90;10.55;;;19.10;99.90;;;;;;5003440;28;19906;-74
2022/08/28 05:21:41;;;;;;;15.45;11.05;;;19.10;99.90;;;;;;5003495;28;20059;-74
2022/08/28 05:24:07;;;;;;;16.05;11.75;;;19.10;99.90;;;;;;5002685;28;20097;-75
2022/08/28 05:26:33;;;;;;;16.85;11.27;;;19.10;99.90;;;;;;5002834;28;20030;-74
2022/08/28 05:28:59;;;;;;;15.07;11.43;;;19.10;99.90;;;;;;5004241;28;20026;-73
2022/08/28 05:31:25;;;;;;;15.93;11.30;;;19.10;99.90;;;;;;5004287;28;20308;-75
2022/08/28 05:33:52;;;;;;;16.30;11.23;;;19.10;99.90;;;;;;5002820;28;20089;-73
2022/08/28 05:36:20;;;;;;;14.93;11.00;;;19.10;99.90;;;;;;5003340;28;20033;-73
2022/08/28 05:38:47;;;;;;;17.25;11.05;;;19.20;99.90;;;;;;5002803;28;20038;-73
2022/08/28 05:41:22;;;;;;;15.25;10.88;;;19.20;99.90;;;;;;5003227;28;20022;-73
2022/08/28 05:43:48;;;;;;;15.57;10.20;;;19.20;99.90;;;;;;4986320;28;20026;-74
2022/08/28 05:46:14;;;;;;;13.67;10.20;;;19.20;99.90;;;;;;5002654;28;20057;-72
2022/08/28 05:48:41;;;;;;;;;;;19.20;99.90;;;;;;4986975;28;20022;-72
2022/08/28 05:51:13;;;;;;;17.80;10.93;;;19.20;99.90;;;;;;5003897;28;19905;-72
2022/08/28 05:53:41;;;;;;;13.43;9.95;;;19.20;99.90;;;;;;5002461;28;20018;-73
2022/08/28 05:56:08;;;;;;;16.60;11.32;;;19.20;99.90;;;;;;5002414;28;20077;-73
2022/08/28 05:58:34;;;;;;;15.30;10.60;;;19.30;99.90;;;;;;5002550;28;20191;-73
2022/08/28 06:01:21;;;;;;;16.17;10.23;;;19.30;99.90;;;;;;5003679;28;20072;-73
2022/08/28 06:03:56;;;;;;;17.92;9.88;;;19.30;99.90;;;;;;5003088;28;20446;-73
2022/08/28 06:06:23;;;;;;;13.52;10.13;;;19.30;99.90;;;;;;5002251;28;20582;-73
2022/08/28 06:08:50;;;;;;;12.88;9.85;;;19.30;99.90;;;;;;5002330;28;20037;-73
2022/08/28 06:11:19;;;;;;;;;;;19.30;99.90;;;;;;5003547;28;20076;-73
2022/08/28 06:13:45;;;;;;;13.77;10.88;;;19.30;99.90;;;;;;5001019;28;19992;-73
2022/08/28 06:16:11;;;;;;;16.23;10.07;;;19.30;99.90;;;;;;5003253;28;20022;-73
2022/08/28 06:18:37;;;;;;;14.00;10.90;;;19.30;99.90;;;;;;5003296;28;20033;-73
2022/08/28 06:21:04;;;;;;;14.75;10.45;;;19.30;99.90;;;;;;5002058;28;20022;-73
2022/08/28 06:23:29;;;;;;;15.63;10.30;;;19.30;99.90;;;;;;5002927;28;20242;-73
2022/08/28 06:25:55;;;;;;;15.67;10.10;;;19.30;99.90;;;;;;4997551;28;20049;-73
2022/08/28 06:28:24;;;;;;;15.63;9.43;;;19.30;99.90;;;;;;4983871;28;20015;-73
2022/08/28 06:30:51;;;;;;;16.73;9.57;;;19.40;99.90;;;;;;4983583;28;20022;-73
2022/08/28 06:33:17;;;;;;;17.40;9.68;;;19.40;99.90;;;;;;4997282;28;20217;-73
2022/08/28 06:35:44;;;;;;;13.90;10.23;;;19.40;99.90;;;;;;4980633;28;20042;-77
2022/08/28 06:38:10;;;;;;;13.57;8.68;;;19.50;99.90;;;;;;4982266;28;20053;-77
2022/08/28 06:40:41;;;;;;;17.20;9.73;;;19.50;99.90;;;;;;4966262;28;20022;-75
2022/08/28 06:43:08;;;;;;;14.90;9.55;;;19.60;99.90;;;;;;4981769;28;20065;-75
2022/08/28 06:45:34;;;;;;;14.70;9.77;;;19.60;99.90;;;;;;4950187;28;20137;-74
2022/08/28 06:48:01;;;;;;;15.02;9.07;;;19.70;99.90;;;;;;4983360;28;20026;-75
2022/08/28 06:50:26;;;;;;;11.38;8.98;;;19.70;99.90;;;;;;4983389;28;20242;-74
2022/08/28 06:52:52;;;;;;;12.90;9.23;;;19.80;99.90;;;;;;4983102;28;20138;-74
2022/08/28 06:55:18;;;;;;;13.20;8.97;;;19.80;99.90;;;;;;4993777;28;20049;-73
2022/08/28 06:57:43;;;;;;;15.77;8.70;;;19.90;99.90;;;;;;5002551;28;20030;-72
2022/08/28 07:00:10;;;;;;;16.73;9.20;;;19.90;99.90;;;;;;5002615;28;20225;-72
2022/08/28 07:02:36;;;;;;;14.48;9.73;;;19.90;99.90;;;;;;5002616;28;20029;-72
2022/08/28 07:05:02;;;;;;;11.87;8.33;;;19.90;99.90;;;;;;4988396;28;20090;-72
2022/08/28 07:07:28;;;;;;;11.40;8.87;;;19.90;99.90;;;;;;4982868;28;20061;-72
2022/08/28 07:09:53;;;;;;;11.53;8.20;;;19.90;99.90;;;;;;4982867;28;20050;-69
2022/08/28 07:12:19;;;;;;;14.37;9.63;;;20.00;99.90;;;;;;4982982;28;20019;-72
2022/08/28 07:14:45;;;;;;;13.53;9.23;;;20.00;99.90;;;;;;4982774;28;20027;-72
2022/08/28 07:17:10;;;;;;;12.27;8.83;;;20.00;99.90;;;;;;4982980;28;20238;-72
2022/08/28 07:19:36;;;;;;;16.03;9.47;;;20.00;99.90;;;;;;4982922;28;20580;-70
2022/08/28 07:22:03;;;;;;;12.87;8.77;;;20.00;99.90;;;;;;4982983;28;20045;-70
2022/08/28 07:24:29;;;;;;;15.88;8.75;;;20.00;99.90;;;;;;4987041;28;20034;-70
2022/08/28 07:26:55;;;;;;;14.97;8.73;;;20.00;99.90;;;;;;5006184;28;20048;-69
2022/08/28 07:29:21;;;;;;;12.03;8.23;;;20.00;99.90;;;;;;5006313;28;20029;-70
2022/08/28 07:31:51;;;;;;;12.88;8.90;;;20.00;99.90;;;;;;5006388;28;20328;-70
2022/08/28 07:34:19;;;;;;;11.57;8.48;;;20.00;99.90;;;;;;5000220;28;20341;-71
2022/08/28 07:36:46;;;;;;;16.27;10.77;;;20.10;99.90;;;;;;4982170;28;20380;-71
2022/08/28 07:39:13;;;;;;;14.13;8.90;;;20.10;99.90;;;;;;4967218;28;20035;-69
2022/08/28 07:41:41;;;;;;;12.98;8.48;;;20.10;99.90;;;;;;4967048;28;20099;-71
2022/08/28 07:46:57;;;;;;;15.98;8.55;;;20.10;99.90;;;;;;4967117;29;20453;-70
2022/08/28 07:49:23;;;;;;;12.25;8.75;;;20.10;99.90;;;;;;4967141;28;20030;-69
2022/08/28 07:51:48;;;;;;;11.77;8.43;;;20.10;99.90;;;;;;4967120;28;20023;-70
2022/08/28 07:54:15;;;;;;;13.10;8.07;;;20.10;99.90;;;;;;4971625;28;20058;-71
2022/08/28 07:56:40;;;;;;;13.88;9.05;;;20.20;99.90;;;;;;5005549;28;20057;-72
2022/08/28 07:59:07;;;;;;;12.00;9.03;;;20.20;99.90;;;;;;5005558;28;20030;-71
2022/08/28 08:01:38;;;;;;;9.88;8.30;;;20.20;99.90;;;;;;5004791;28;20026;-71
2022/08/28 08:04:06;;;;;;;12.98;9.07;;;20.20;99.90;;;;;;5002947;28;20037;-70
2022/08/28 08:06:32;;;;;;;13.35;8.40;;;20.30;99.90;;;;;;5000696;28;20034;-73
2022/08/28 08:08:58;;;;;;;11.13;8.30;;;20.30;99.90;;;;;;4986069;28;20195;-71
2022/08/28 08:11:25;;;;;;;15.43;8.20;;;20.30;99.90;;;;;;4985771;28;20051;-71
2022/08/28 08:13:51;;;;;;;12.80;8.23;;;20.30;99.90;;;;;;4986001;28;20023;-71
2022/08/28 08:16:20;;;;;;;14.48;8.45;;;20.30;99.90;;;;;;4985976;28;20327;-71
2022/08/28 08:18:47;;;;;;;12.43;8.20;;;20.30;99.90;;;;;;4985980;28;20023;-70
2022/08/28 08:21:14;;;;;;;;;;;20.40;99.90;;;;;;4986175;28;20038;-71
2022/08/28 08:23:40;;;;;;;12.35;8.23;;;20.40;99.90;;;;;;4985409;28;19942;-71
2022/08/28 08:26:15;;;;;;;11.52;7.95;;;20.50;99.90;;;;;;5016853;28;20101;-71
2022/08/28 08:28:41;;;;;;;14.23;8.70;;;20.50;99.90;;;;;;5004267;28;20085;-71
2022/08/28 08:31:16;;;;;;;12.57;7.75;;;20.60;99.90;;;;;;5005284;28;20034;-71
2022/08/28 08:33:44;;;;;;;12.57;8.57;;;20.70;99.90;;;;;;5004800;28;20068;-72
2022/08/28 08:36:12;;;;;;;12.00;8.50;;;20.80;99.90;;;;;;4998504;28;20069;-70
2022/08/28 08:38:37;;;;;;;13.93;9.82;;;20.90;99.90;;;;;;5004774;28;20042;-71
2022/08/28 08:41:16;;;;;;;12.32;7.82;;;21.00;99.90;;;;;;5004793;28;20050;-71
2022/08/28 08:44:06;;;;;;;12.73;8.10;;;21.20;99.90;;;;;;5004557;28;20030;-71
2022/08/28 08:46:35;;;;;;;14.38;7.57;;;21.30;99.90;;;;;;4989689;28;20403;-72
2022/08/28 08:49:04;;;;;;;13.20;7.50;;;21.50;99.90;;;;;;5003698;28;20018;-71
2022/08/28 08:52:01;;;;;;;15.02;8.30;;;21.50;99.90;;;;;;5003644;28;20086;-71
2022/08/28 08:54:27;;;;;;;11.18;7.15;;;21.70;99.90;;;;;;4992339;28;20084;-73
2022/08/28 08:56:53;;;;;;;10.97;7.10;;;21.70;99.90;;;;;;4989582;28;20310;-74
2022/08/28 08:59:21;;;;;;;12.25;6.93;;;21.90;99.90;;;;;;4966965;28;20023;-72
2022/08/28 09:02:00;;;;;;;9.75;6.75;;;21.90;99.90;;;;;;4967428;28;20077;-72
2022/08/28 09:04:47;;;;;;;12.95;6.53;;;22.10;99.90;;;;;;4968291;28;20026;-71
2022/08/28 09:07:51;;;;;;;11.18;7.03;;;22.20;99.90;;;;;;4985049;28;20027;-70
2022/08/28 09:10:18;;;;;;;8.75;6.72;;;22.20;99.90;;;;;;4949787;28;20035;-69
2022/08/28 09:13:05;;;;;;;13.88;7.38;;;22.30;99.90;;;;;;4983037;28;20086;-73
2022/08/28 09:15:32;;;;;;;9.30;7.05;;;22.30;99.90;;;;;;4984969;28;20042;-70
2022/08/28 09:18:24;;;;;;;10.45;6.75;;;22.30;99.90;;;;;;4992057;28;20317;-70
2022/08/28 09:20:55;;;;;;;12.48;6.43;;;22.40;99.90;;;;;;5003252;28;20380;-74
2022/08/28 09:23:22;;;;;;;12.77;6.90;;;22.40;99.90;;;;;;5002885;28;20037;-73
2022/08/28 09:25:51;;;;;;;11.45;6.55;;;22.50;99.90;;;;;;5002753;28;20030;-73
2022/08/28 09:28:49;;;;;;;10.38;6.55;;;22.60;99.90;;;;;;5003006;28;20030;-72
2022/08/28 09:31:18;;;;;;;8.23;5.78;;;22.80;99.90;;;;;;5002612;28;20030;-72
2022/08/28 09:33:50;;;;;;;8.40;6.22;;;22.80;99.90;;;;;;5003102;28;20060;-73
2022/08/28 09:36:34;;;;;;;8.63;5.47;;;22.90;99.90;;;;;;4985914;28;20022;-72
2022/08/28 09:39:29;;;;;;;10.57;5.50;;;22.90;99.90;;;;;;4999627;28;20022;-74
2022/08/28 09:45:17;;;;;;;10.93;5.95;;;22.90;99.90;;;;;;4984177;28;20042;-72
2022/08/28 09:47:56;;;;;;;11.90;5.75;;;22.90;99.90;;;;;;4972362;28;20105;-75
2022/08/28 09:50:39;;;;;;;6.63;5.45;;;22.80;99.90;;;;;;5002581;28;20080;-76
2022/08/28 09:53:08;;;;;;;9.88;5.90;;;22.80;99.90;;;;;;5002439;28;20095;-75
2022/08/28 09:56:04;;;;;;;12.05;6.82;;;22.80;99.90;;;;;;5003007;28;20037;-75
2022/08/28 09:58:45;;;;;;;7.85;5.30;;;22.80;99.90;;;;;;5001948;28;20033;-70
2022/08/28 10:01:45;;;;;;;8.05;5.72;;;22.80;99.90;;;;;;5003388;28;20023;-70
2022/08/28 10:04:37;;;;;;;11.63;6.35;;;22.80;99.90;;;;;;5003348;28;20065;-71
2022/08/28 10:07:07;;;;;;;10.48;5.95;;;22.90;99.90;;;;;;4999055;28;20293;-70
2022/08/28 10:10:20;;;;;;;7.65;5.65;;;23.00;99.90;;;;;;4998635;28;20489;-71
2022/08/28 10:13:22;;;;;;;12.45;5.53;;;23.00;99.90;;;;;;4983128;28;20113;-71
2022/08/28 10:16:00;;;;;;;13.25;5.82;;;23.20;99.90;;;;;;4997016;28;20015;-70
2022/08/28 10:19:02;;;;;;;9.55;5.05;;;23.30;99.90;;;;;;5010250;28;20025;-70
2022/08/28 10:22:13;;;;;;;8.45;5.32;;;23.50;99.90;;;;;;5003183;28;20052;-74
2022/08/28 10:25:13;;;;;;;8.10;5.53;;;23.60;99.90;;;;;;4994734;28;20199;-72
2022/08/28 10:27:47;;;;;;;10.30;5.25;;;23.80;99.90;;;;;;5000272;28;20106;-70
2022/08/28 10:30:21;;;;;;;10.07;5.60;;;23.80;99.90;;;;;;5002991;28;20022;-70
2022/08/28 10:33:09;;;;;;;14.07;6.43;;;23.90;99.90;;;;;;4985778;28;20528;-73
2022/08/28 10:35:59;;;;;;;9.98;6.43;;;23.90;99.90;;;;;;4993833;28;20049;-73
2022/08/28 10:38:44;;;;;;;9.40;5.82;;;24.00;99.90;;;;;;4983075;28;20070;-72
2022/08/28 10:41:24;;;;;;;12.52;5.97;;;24.10;99.90;;;;;;4997197;28;20030;-75
2022/08/28 10:43:52;;;;;;;14.85;6.32;;;24.20;99.90;;;;;;4996123;28;20026;-72
2022/08/28 10:46:23;;;;;;;10.38;6.05;;;24.30;99.90;;;;;;4998205;28;20033;-73
2022/08/28 10:48:58;;;;;;;10.20;5.88;;;24.40;99.90;;;;;;4997879;28;20022;-73
2022/08/28 10:51:48;;;;;;;12.82;6.15;;;24.50;99.90;;;;;;4998137;28;20031;-73
2022/08/28 10:54:40;;;;;;;10.02;5.50;;;24.60;99.90;;;;;;4997755;28;20294;-73
2022/08/28 10:57:26;;;;;;;10.95;6.30;;;24.70;99.90;;;;;;5010151;28;20092;-72
2022/08/28 10:59:52;;;;;;;11.80;5.50;;;24.60;99.90;;;;;;5001361;28;20100;-70
2022/08/28 11:02:21;;;;;;;6.75;5.55;;;24.50;99.90;;;;;;5002395;28;20085;-71
2022/08/28 11:04:47;;;;;;;9.55;5.82;;;24.50;99.90;;;;;;5000008;28;20038;-71
2022/08/28 11:07:19;;;;;;;7.95;6.28;;;24.50;99.90;;;;;;4997839;28;20046;-70
2022/08/28 11:09:47;;;;;;;8.35;5.75;;;24.50;99.90;;;;;;4981894;28;20023;-71
2022/08/28 11:12:16;;;;;;;11.75;5.97;;;24.60;99.90;;;;;;4997261;28;20034;-74
2022/08/28 11:14:44;;;;;;;8.43;5.53;;;24.90;99.90;;;;;;4982643;28;20018;-73
2022/08/28 11:17:39;;;;;;;6.88;6.05;;;25.00;99.90;;;;;;4997619;28;20093;-73
2022/08/28 11:20:27;;;;;;;7.60;5.05;;;25.10;99.90;;;;;;4966224;28;20026;-72
2022/08/28 11:23:18;;;;;;;7.32;5.80;;;25.00;99.90;;;;;;4996514;28;20066;-73
2022/08/28 11:25:47;;;;;;;7.82;5.32;;;25.00;99.90;;;;;;4998031;28;20034;-71
2022/08/28 11:28:25;;;;;;;10.13;6.10;;;24.80;99.90;;;;;;5001171;28;20379;-73
2022/08/28 11:30:57;;;;;;;9.52;6.20;;;24.70;99.90;;;;;;5002217;28;20061;-72
2022/08/28 11:33:47;;;;;;;8.88;6.05;;;24.60;99.90;;;;;;5002072;28;20061;-72
2022/08/28 11:36:19;;;;;;;7.43;5.93;;;24.50;99.90;;;;;;4990927;28;20089;-73
2022/08/28 11:38:45;;;;;;;10.13;6.28;;;24.30;99.90;;;;;;4982807;28;20027;-73
2022/08/28 11:41:25;;;;;;;7.40;5.72;;;24.30;99.90;;;;;;4981717;28;20062;-73
2022/08/28 11:44:07;;;;;;;7.25;5.72;;;24.20;99.90;;;;;;4981618;28;20077;-74
2022/08/28 11:46:35;;;;;;;8.00;6.43;;;24.20;99.90;;;;;;4994717;28;20033;-72
2022/08/28 11:49:04;;;;;;;8.30;5.90;;;24.20;99.90;;;;;;4979795;28;20019;-73
2022/08/28 11:51:57;;;;;;;10.25;6.03;;;24.20;99.90;;;;;;4978440;28;20070;-70
2022/08/28 11:55:23;;;;;;;7.75;5.80;;;24.10;99.90;;;;;;4986485;28;20045;-71
2022/08/28 11:58:14;;;;;;;8.43;5.80;;;24.00;99.90;;;;;;4948826;28;20032;-71
2022/08/28 12:01:02;;;;;;;8.27;6.05;;;23.90;99.90;;;;;;4961610;29;20078;-74
2022/08/28 12:04:02;;;;;;;10.52;7.28;;;23.80;99.90;;;;;;4961980;28;20026;-74
2022/08/28 12:06:50;;;;;;;9.73;6.43;;;23.70;99.90;;;;;;4975452;28;20023;-75
2022/08/28 12:09:25;;;;;;;8.00;5.57;;;23.60;99.90;;;;;;4981556;28;20023;-73
2022/08/28 12:12:00;;;;;;;8.68;4.78;;;23.60;99.90;;;;;;4982802;28;20022;-76
2022/08/28 12:14:28;;;;;;;10.50;6.05;;;23.50;99.90;;;;;;4969345;28;20023;-75
2022/08/28 12:17:14;;;;;;;14.10;7.57;;;23.50;99.90;;;;;;4986158;28;20023;-78
2022/08/28 12:20:02;;;;;;;6.53;5.57;;;23.40;99.90;;;;;;4968896;28;20022;-72
2022/08/28 12:22:43;;;;;;;7.97;5.55;;;23.40;99.90;;;;;;4965796;29;20023;-70
2022/08/28 12:25:37;;;;;;;11.77;5.75;;;23.40;99.90;;;;;;4966995;28;20064;-69
2022/08/28 12:28:21;;;;;;;8.38;4.85;;;23.50;99.90;;;;;;4950254;29;20341;-70
2022/08/28 12:31:09;;;;;;;10.00;5.63;;;23.50;99.90;;;;;;4949638;29;20027;-70
2022/08/28 12:33:41;;;;;;;;;;;23.50;99.90;;;;;;4966439;28;20045;-71
2022/08/28 12:36:13;;;;;;;12.15;5.75;;;23.60;99.90;;;;;;4965319;28;20099;-69
2022/08/28 12:38:39;;;;;;;8.98;5.38;;;23.70;99.90;;;;;;4949456;29;20525;-69
2022/08/28 12:41:13;;;;;;;7.63;5.15;;;23.80;99.90;;;;;;4949389;29;20130;-70
2022/08/28 12:43:42;;;;;;;11.05;5.20;;;23.90;99.90;;;;;;4949727;29;20082;-69
2022/08/28 12:46:10;;;;;;;14.30;6.07;;;24.10;99.90;;;;;;4964837;29;20262;-70
2022/08/28 12:48:50;;;;;;;9.05;5.75;;;24.20;99.90;;;;;;4965104;29;20027;-69
2022/08/28 12:51:41;;;;;;;10.25;5.68;;;24.40;99.90;;;;;;4990881;28;20018;-70
2022/08/28 12:54:07;;;;;;;9.95;4.55;;;24.50;99.90;;;;;;4996873;28;20026;-69
2022/08/28 12:56:35;;;;;;;7.85;4.97;;;24.60;99.90;;;;;;4985111;28;20451;-69
2022/08/28 12:59:24;;;;;;;8.70;4.85;;;24.50;99.90;;;;;;4985187;28;20026;-69
2022/08/28 13:01:50;;;;;;;9.23;4.78;;;24.50;99.90;;;;;;4985252;28;20213;-69
2022/08/28 13:04:44;;;;;;;8.23;4.90;;;24.50;99.90;;;;;;5000202;28;20026;-70
2022/08/28 13:07:14;;;;;;;7.00;4.18;;;24.50;99.90;;;;;;4998763;28;20026;-70